sensor_id;sensor_type;location;lat;lon;timestamp;temperature;humidity
34137;DHT22;20414;50.860;4.382;2022-10-10T00:02:14;17.10;64.40
34137;DHT22;20414;50.860;4.382;2022-10-10T00:04:40;17.10;64.40
34137;DHT22;20414;50.860;4.382;2022-10-10T00:07:07;17.10;64.40
34137;DHT22;20414;50.860;4.382;2022-10-10T00:09:32;17.10;64.40
34137;DHT22;20414;50.860;4.382;2022-10-10T00:11:58;17.10;64.30
34137;DHT22;20414;50.860;4.382;2022-10-10T00:14:24;17.10;64.40
34137;DHT22;20414;50.860;4.382;2022-10-10T00:16:49;17.10;64.40
34137;DHT22;20414;50.860;4.382;2022-10-10T00:19:15;17.10;65.00
34137;DHT22;20414;50.860;4.382;2022-10-10T00:21:41;17.10;64.40
34137;DHT22;20414;50.860;4.382;2022-10-10T00:24:07;17.10;64.40
34137;DHT22;20414;50.860;4.382;2022-10-10T00:26:32;17.10;64.40
34137;DHT22;20414;50.860;4.382;2022-10-10T00:28:58;17.10;64.40
34137;DHT22;20414;50.860;4.382;2022-10-10T00:31:24;17.10;64.40
34137;DHT22;20414;50.860;4.382;2022-10-10T00:33:49;17.10;64.40
34137;DHT22;20414;50.860;4.382;2022-10-10T00:36:15;17.10;64.40
34137;DHT22;20414;50.860;4.382;2022-10-10T00:38:41;17.10;64.40
34137;DHT22;20414;50.860;4.382;2022-10-10T00:41:07;17.10;64.40
34137;DHT22;20414;50.860;4.382;2022-10-10T00:43:33;17.10;64.40
34137;DHT22;20414;50.860;4.382;2022-10-10T00:45:59;17.10;64.40
34137;DHT22;20414;50.860;4.382;2022-10-10T00:51:08;17.10;64.40
34137;DHT22;20414;50.860;4.382;2022-10-10T00:53:40;17.10;64.40
34137;DHT22;20414;50.860;4.382;2022-10-10T00:56:08;17.10;64.40
34137;DHT22;20414;50.860;4.382;2022-10-10T00:58:35;17.10;64.40
34137;DHT22;20414;50.860;4.382;2022-10-10T01:01:01;17.10;64.40
34137;DHT22;20414;50.860;4.382;2022-10-10T01:03:27;17.10;64.40
34137;DHT22;20414;50.860;4.382;2022-10-10T01:05:53;17.10;64.40
34137;DHT22;20414;50.860;4.382;2022-10-10T01:08:20;17.10;64.40
34137;DHT22;20414;50.860;4.382;2022-10-10T01:10:53;17.10;64.40
34137;DHT22;20414;50.860;4.382;2022-10-10T01:13:37;17.10;64.40
34137;DHT22;20414;50.860;4.382;2022-10-10T01:16:07;17.10;64.40
34137;DHT22;20414;50.860;4.382;2022-10-10T01:19:03;17.10;64.40
34137;DHT22;20414;50.860;4.382;2022-10-10T01:29:44;17.10;64.40
34137;DHT22;20414;50.860;4.382;2022-10-10T01:34:50;17.10;64.40
34137;DHT22;20414;50.860;4.382;2022-10-10T01:40:17;17.10;64.40
34137;DHT22;20414;50.860;4.382;2022-10-10T01:42:57;17.10;64.40
34137;DHT22;20414;50.860;4.382;2022-10-10T01:45:25;17.10;64.40
34137;DHT22;20414;50.860;4.382;2022-10-10T01:47:53;17.10;64.40
34137;DHT22;20414;50.860;4.382;2022-10-10T01:50:21;17.10;64.40
34137;DHT22;20414;50.860;4.382;2022-10-10T01:53:15;17.10;64.40
34137;DHT22;20414;50.860;4.382;2022-10-10T02:04:46;17.10;64.40
34137;DHT22;20414;50.860;4.382;2022-10-10T02:10:23;17.10;64.40
34137;DHT22;20414;50.860;4.382;2022-10-10T02:12:51;17.10;64.40
34137;DHT22;20414;50.860;4.382;2022-10-10T02:15:21;17.10;64.40
34137;DHT22;20414;50.860;4.382;2022-10-10T02:17:49;17.10;64.40
34137;DHT22;20414;50.860;4.382;2022-10-10T02:20:18;17.10;64.40
34137;DHT22;20414;50.860;4.382;2022-10-10T02:22:46;17.10;64.40
34137;DHT22;20414;50.860;4.382;2022-10-10T02:25:12;17.10;64.40
34137;DHT22;20414;50.860;4.382;2022-10-10T02:27:42;17.10;64.40
34137;DHT22;20414;50.860;4.382;2022-10-10T02:30:10;17.10;64.40
34137;DHT22;20414;50.860;4.382;2022-10-10T02:32:43;17.10;64.40
34137;DHT22;20414;50.860;4.382;2022-10-10T02:35:22;17.10;64.40
34137;DHT22;20414;50.860;4.382;2022-10-10T02:37:49;17.10;64.40
34137;DHT22;20414;50.860;4.382;2022-10-10T02:40:19;17.10;64.40
34137;DHT22;20414;50.860;4.382;2022-10-10T02:42:46;17.10;64.40
34137;DHT22;20414;50.860;4.382;2022-10-10T02:45:13;17.10;64.40
34137;DHT22;20414;50.860;4.382;2022-10-10T02:47:39;17.10;64.40
34137;DHT22;20414;50.860;4.382;2022-10-10T02:50:05;17.10;64.40
34137;DHT22;20414;50.860;4.382;2022-10-10T02:52:31;17.10;64.40
34137;DHT22;20414;50.860;4.382;2022-10-10T02:54:56;17.10;64.40
34137;DHT22;20414;50.860;4.382;2022-10-10T02:57:22;17.10;64.40
34137;DHT22;20414;50.860;4.382;2022-10-10T02:59:48;17.00;64.30
34137;DHT22;20414;50.860;4.382;2022-10-10T03:02:13;17.10;64.40
34137;DHT22;20414;50.860;4.382;2022-10-10T03:04:39;17.10;64.40
34137;DHT22;20414;50.860;4.382;2022-10-10T03:07:04;17.00;64.30
34137;DHT22;20414;50.860;4.382;2022-10-10T03:09:30;17.10;64.40
34137;DHT22;20414;50.860;4.382;2022-10-10T03:11:56;17.10;64.40
34137;DHT22;20414;50.860;4.382;2022-10-10T03:14:21;17.10;64.40
34137;DHT22;20414;50.860;4.382;2022-10-10T03:16:47;17.00;64.30
34137;DHT22;20414;50.860;4.382;2022-10-10T03:19:13;17.00;64.30
34137;DHT22;20414;50.860;4.382;2022-10-10T03:21:38;17.00;64.30
34137;DHT22;20414;50.860;4.382;2022-10-10T03:24:04;17.00;64.30
34137;DHT22;20414;50.860;4.382;2022-10-10T03:26:31;17.00;65.00
34137;DHT22;20414;50.860;4.382;2022-10-10T03:28:57;17.00;64.30
34137;DHT22;20414;50.860;4.382;2022-10-10T03:31:23;17.00;64.30
34137;DHT22;20414;50.860;4.382;2022-10-10T03:33:49;17.00;64.30
34137;DHT22;20414;50.860;4.382;2022-10-10T03:36:14;17.00;64.40
34137;DHT22;20414;50.860;4.382;2022-10-10T03:38:40;17.10;64.40
34137;DHT22;20414;50.860;4.382;2022-10-10T03:41:06;17.00;64.30
34137;DHT22;20414;50.860;4.382;2022-10-10T03:43:31;17.00;64.40
34137;DHT22;20414;50.860;4.382;2022-10-10T03:45:57;17.00;64.40
34137;DHT22;20414;50.860;4.382;2022-10-10T03:48:23;17.00;64.40
34137;DHT22;20414;50.860;4.382;2022-10-10T03:50:48;17.10;64.40
34137;DHT22;20414;50.860;4.382;2022-10-10T03:53:14;17.10;64.40
34137;DHT22;20414;50.860;4.382;2022-10-10T03:55:40;17.00;64.40
34137;DHT22;20414;50.860;4.382;2022-10-10T03:58:07;17.00;64.30
34137;DHT22;20414;50.860;4.382;2022-10-10T04:00:33;17.00;64.30
34137;DHT22;20414;50.860;4.382;2022-10-10T04:02:58;17.00;64.40
34137;DHT22;20414;50.860;4.382;2022-10-10T04:05:24;17.00;64.30
34137;DHT22;20414;50.860;4.382;2022-10-10T04:07:50;17.00;64.40
34137;DHT22;20414;50.860;4.382;2022-10-10T04:10:15;17.00;64.40
34137;DHT22;20414;50.860;4.382;2022-10-10T04:12:41;17.00;64.40
34137;DHT22;20414;50.860;4.382;2022-10-10T04:15:07;17.00;64.40
34137;DHT22;20414;50.860;4.382;2022-10-10T04:17:33;17.00;64.40
34137;DHT22;20414;50.860;4.382;2022-10-10T04:19:59;17.00;64.40
34137;DHT22;20414;50.860;4.382;2022-10-10T04:22:24;17.00;64.30
34137;DHT22;20414;50.860;4.382;2022-10-10T04:24:50;17.00;64.40
34137;DHT22;20414;50.860;4.382;2022-10-10T04:27:15;17.00;64.30
34137;DHT22;20414;50.860;4.382;2022-10-10T04:29:41;17.00;64.40
34137;DHT22;20414;50.860;4.382;2022-10-10T04:32:07;17.00;64.40
34137;DHT22;20414;50.860;4.382;2022-10-10T04:34:32;17.00;64.40
34137;DHT22;20414;50.860;4.382;2022-10-10T04:36:58;17.00;64.30
34137;DHT22;20414;50.860;4.382;2022-10-10T04:39:24;17.00;64.30
34137;DHT22;20414;50.860;4.382;2022-10-10T04:41:49;17.00;64.30
34137;DHT22;20414;50.860;4.382;2022-10-10T04:44:18;17.00;64.30
34137;DHT22;20414;50.860;4.382;2022-10-10T04:46:44;17.00;64.30
34137;DHT22;20414;50.860;4.382;2022-10-10T04:49:10;17.00;64.30
34137;DHT22;20414;50.860;4.382;2022-10-10T04:51:36;17.00;64.40
34137;DHT22;20414;50.860;4.382;2022-10-10T04:54:02;17.00;64.40
34137;DHT22;20414;50.860;4.382;2022-10-10T04:56:28;17.00;64.40
34137;DHT22;20414;50.860;4.382;2022-10-10T04:58:53;17.00;64.40
34137;DHT22;20414;50.860;4.382;2022-10-10T05:01:19;17.00;64.40
34137;DHT22;20414;50.860;4.382;2022-10-10T05:03:45;17.00;64.40
34137;DHT22;20414;50.860;4.382;2022-10-10T05:06:10;17.00;64.40
34137;DHT22;20414;50.860;4.382;2022-10-10T05:08:36;17.00;64.40
34137;DHT22;20414;50.860;4.382;2022-10-10T05:11:02;17.00;64.40
34137;DHT22;20414;50.860;4.382;2022-10-10T05:13:28;17.00;64.40
34137;DHT22;20414;50.860;4.382;2022-10-10T05:15:53;17.00;64.40
34137;DHT22;20414;50.860;4.382;2022-10-10T05:18:20;17.00;64.40
34137;DHT22;20414;50.860;4.382;2022-10-10T05:20:46;17.00;64.40
34137;DHT22;20414;50.860;4.382;2022-10-10T05:23:15;17.00;64.40
34137;DHT22;20414;50.860;4.382;2022-10-10T05:25:48;17.00;64.40
34137;DHT22;20414;50.860;4.382;2022-10-10T05:28:14;17.00;64.40
34137;DHT22;20414;50.860;4.382;2022-10-10T05:30:40;17.00;65.10
34137;DHT22;20414;50.860;4.382;2022-10-10T05:33:06;16.90;64.30
34137;DHT22;20414;50.860;4.382;2022-10-10T05:35:32;16.90;64.30
34137;DHT22;20414;50.860;4.382;2022-10-10T05:37:58;17.00;64.40
34137;DHT22;20414;50.860;4.382;2022-10-10T05:40:23;16.90;64.30
34137;DHT22;20414;50.860;4.382;2022-10-10T05:42:49;16.90;64.30
34137;DHT22;20414;50.860;4.382;2022-10-10T05:45:15;16.90;64.30
34137;DHT22;20414;50.860;4.382;2022-10-10T05:47:41;16.90;64.30
34137;DHT22;20414;50.860;4.382;2022-10-10T05:52:53;16.90;64.40
34137;DHT22;20414;50.860;4.382;2022-10-10T05:55:18;16.90;64.30
34137;DHT22;20414;50.860;4.382;2022-10-10T05:57:44;16.90;64.30
34137;DHT22;20414;50.860;4.382;2022-10-10T06:00:10;16.90;64.40
34137;DHT22;20414;50.860;4.382;2022-10-10T06:02:36;16.90;64.30
34137;DHT22;20414;50.860;4.382;2022-10-10T06:05:02;16.90;64.30
34137;DHT22;20414;50.860;4.382;2022-10-10T06:07:27;16.90;64.30
34137;DHT22;20414;50.860;4.382;2022-10-10T06:09:53;16.90;64.30
34137;DHT22;20414;50.860;4.382;2022-10-10T06:12:19;16.90;64.30
34137;DHT22;20414;50.860;4.382;2022-10-10T06:14:44;16.90;64.30
34137;DHT22;20414;50.860;4.382;2022-10-10T06:17:10;16.90;64.30
34137;DHT22;20414;50.860;4.382;2022-10-10T06:19:35;16.90;64.30
34137;DHT22;20414;50.860;4.382;2022-10-10T06:22:01;16.90;64.40
34137;DHT22;20414;50.860;4.382;2022-10-10T06:24:27;16.90;64.30
34137;DHT22;20414;50.860;4.382;2022-10-10T06:26:52;16.90;64.30
34137;DHT22;20414;50.860;4.382;2022-10-10T06:29:18;16.90;64.40
34137;DHT22;20414;50.860;4.382;2022-10-10T06:31:44;16.90;64.40
34137;DHT22;20414;50.860;4.382;2022-10-10T06:34:09;16.90;64.40
34137;DHT22;20414;50.860;4.382;2022-10-10T06:36:35;16.90;64.40
34137;DHT22;20414;50.860;4.382;2022-10-10T06:39:00;16.90;64.40
34137;DHT22;20414;50.860;4.382;2022-10-10T06:41:26;16.90;64.50
34137;DHT22;20414;50.860;4.382;2022-10-10T06:43:52;16.90;64.50
34137;DHT22;20414;50.860;4.382;2022-10-10T06:46:17;16.90;64.50
34137;DHT22;20414;50.860;4.382;2022-10-10T06:48:43;16.90;64.60
34137;DHT22;20414;50.860;4.382;2022-10-10T06:51:14;16.90;64.60
34137;DHT22;20414;50.860;4.382;2022-10-10T06:53:40;16.90;64.70
34137;DHT22;20414;50.860;4.382;2022-10-10T06:56:06;16.90;64.70
34137;DHT22;20414;50.860;4.382;2022-10-10T06:58:32;16.90;64.70
34137;DHT22;20414;50.860;4.382;2022-10-10T07:01:01;16.90;64.70
34137;DHT22;20414;50.860;4.382;2022-10-10T07:03:29;16.90;64.60
34137;DHT22;20414;50.860;4.382;2022-10-10T07:05:57;16.90;64.60
34137;DHT22;20414;50.860;4.382;2022-10-10T07:08:24;16.90;64.60
34137;DHT22;20414;50.860;4.382;2022-10-10T07:10:50;16.90;64.70
34137;DHT22;20414;50.860;4.382;2022-10-10T07:13:16;16.90;64.60
34137;DHT22;20414;50.860;4.382;2022-10-10T07:15:42;16.90;64.60
34137;DHT22;20414;50.860;4.382;2022-10-10T07:18:08;16.90;64.60
34137;DHT22;20414;50.860;4.382;2022-10-10T07:20:35;16.90;64.70
34137;DHT22;20414;50.860;4.382;2022-10-10T07:23:01;16.90;64.60
34137;DHT22;20414;50.860;4.382;2022-10-10T07:25:28;16.90;65.40
34137;DHT22;20414;50.860;4.382;2022-10-10T07:27:53;16.90;65.40
34137;DHT22;20414;50.860;4.382;2022-10-10T07:30:19;16.90;64.60
34137;DHT22;20414;50.860;4.382;2022-10-10T07:32:45;16.90;64.60
34137;DHT22;20414;50.860;4.382;2022-10-10T07:35:11;16.90;64.60
34137;DHT22;20414;50.860;4.382;2022-10-10T07:37:37;16.90;64.60
34137;DHT22;20414;50.860;4.382;2022-10-10T07:40:04;16.90;64.60
34137;DHT22;20414;50.860;4.382;2022-10-10T07:42:30;16.90;64.60
34137;DHT22;20414;50.860;4.382;2022-10-10T07:44:57;16.90;64.60
34137;DHT22;20414;50.860;4.382;2022-10-10T07:47:22;16.90;64.70
34137;DHT22;20414;50.860;4.382;2022-10-10T07:49:49;16.90;64.60
34137;DHT22;20414;50.860;4.382;2022-10-10T07:52:14;16.90;64.70
34137;DHT22;20414;50.860;4.382;2022-10-10T07:54:40;16.90;64.60
34137;DHT22;20414;50.860;4.382;2022-10-10T07:57:06;16.90;64.60
34137;DHT22;20414;50.860;4.382;2022-10-10T07:59:32;16.90;64.60
34137;DHT22;20414;50.860;4.382;2022-10-10T08:01:58;16.90;64.60
34137;DHT22;20414;50.860;4.382;2022-10-10T08:04:24;16.90;64.60
34137;DHT22;20414;50.860;4.382;2022-10-10T08:06:49;16.90;64.60
34137;DHT22;20414;50.860;4.382;2022-10-10T08:09:15;16.90;64.60
34137;DHT22;20414;50.860;4.382;2022-10-10T08:11:41;16.90;64.60
34137;DHT22;20414;50.860;4.382;2022-10-10T08:14:07;16.90;64.60
34137;DHT22;20414;50.860;4.382;2022-10-10T08:16:32;16.90;64.50
34137;DHT22;20414;50.860;4.382;2022-10-10T08:18:58;16.90;64.60
34137;DHT22;20414;50.860;4.382;2022-10-10T08:21:24;16.90;64.60
34137;DHT22;20414;50.860;4.382;2022-10-10T08:23:49;16.90;64.60
34137;DHT22;20414;50.860;4.382;2022-10-10T08:26:16;16.90;64.50
34137;DHT22;20414;50.860;4.382;2022-10-10T08:28:43;16.90;64.50
34137;DHT22;20414;50.860;4.382;2022-10-10T08:31:14;16.90;64.50
34137;DHT22;20414;50.860;4.382;2022-10-10T08:33:42;16.90;64.50
34137;DHT22;20414;50.860;4.382;2022-10-10T08:36:20;16.90;64.50
34137;DHT22;20414;50.860;4.382;2022-10-10T08:38:46;16.90;64.50
34137;DHT22;20414;50.860;4.382;2022-10-10T08:41:56;16.90;64.40
34137;DHT22;20414;50.860;4.382;2022-10-10T08:47:14;17.00;64.50
34137;DHT22;20414;50.860;4.382;2022-10-10T08:49:54;17.00;64.40
34137;DHT22;20414;50.860;4.382;2022-10-10T08:52:59;17.00;64.40
34137;DHT22;20414;50.860;4.382;2022-10-10T08:55:37;17.00;64.40
34137;DHT22;20414;50.860;4.382;2022-10-10T08:58:25;17.00;64.40
34137;DHT22;20414;50.860;4.382;2022-10-10T09:01:20;17.00;64.40
34137;DHT22;20414;50.860;4.382;2022-10-10T09:03:51;17.00;64.40
34137;DHT22;20414;50.860;4.382;2022-10-10T09:09:35;17.00;64.40
34137;DHT22;20414;50.860;4.382;2022-10-10T09:15:01;17.00;64.40
34137;DHT22;20414;50.860;4.382;2022-10-10T09:22:53;17.00;64.40
34137;DHT22;20414;50.860;4.382;2022-10-10T09:25:36;17.00;64.30
34137;DHT22;20414;50.860;4.382;2022-10-10T09:28:19;17.00;64.30
34137;DHT22;20414;50.860;4.382;2022-10-10T09:30:51;17.00;64.40
34137;DHT22;20414;50.860;4.382;2022-10-10T09:33:25;17.00;64.40
34137;DHT22;20414;50.860;4.382;2022-10-10T09:35:52;17.00;64.40
34137;DHT22;20414;50.860;4.382;2022-10-10T09:38:34;17.00;64.40
34137;DHT22;20414;50.860;4.382;2022-10-10T09:41:35;17.00;64.40
34137;DHT22;20414;50.860;4.382;2022-10-10T09:44:08;17.00;64.40
34137;DHT22;20414;50.860;4.382;2022-10-10T09:46:35;17.00;64.40
34137;DHT22;20414;50.860;4.382;2022-10-10T09:49:02;17.00;64.40
34137;DHT22;20414;50.860;4.382;2022-10-10T09:51:28;17.00;64.40
34137;DHT22;20414;50.860;4.382;2022-10-10T09:53:55;17.00;64.40
34137;DHT22;20414;50.860;4.382;2022-10-10T09:56:29;17.00;64.30
34137;DHT22;20414;50.860;4.382;2022-10-10T09:58:55;17.00;65.10
34137;DHT22;20414;50.860;4.382;2022-10-10T10:01:29;17.00;64.30
34137;DHT22;20414;50.860;4.382;2022-10-10T10:04:09;17.00;64.30
34137;DHT22;20414;50.860;4.382;2022-10-10T10:06:36;17.00;64.30
34137;DHT22;20414;50.860;4.382;2022-10-10T10:09:04;17.00;64.30
34137;DHT22;20414;50.860;4.382;2022-10-10T10:11:35;17.00;64.30
34137;DHT22;20414;50.860;4.382;2022-10-10T10:14:03;17.10;64.40
34137;DHT22;20414;50.860;4.382;2022-10-10T10:16:32;17.00;64.40
34137;DHT22;20414;50.860;4.382;2022-10-10T10:18:58;17.00;64.30
34137;DHT22;20414;50.860;4.382;2022-10-10T10:21:24;17.00;65.00
34137;DHT22;20414;50.860;4.382;2022-10-10T10:23:54;17.10;64.40
34137;DHT22;20414;50.860;4.382;2022-10-10T10:28:50;17.10;64.40
34137;DHT22;20414;50.860;4.382;2022-10-10T10:37:11;17.00;64.30
34137;DHT22;20414;50.860;4.382;2022-10-10T10:39:48;17.10;64.40
34137;DHT22;20414;50.860;4.382;2022-10-10T10:45:14;17.10;64.30
34137;DHT22;20414;50.860;4.382;2022-10-10T10:59:08;17.10;64.30
34137;DHT22;20414;50.860;4.382;2022-10-10T11:07:20;17.10;64.30
34137;DHT22;20414;50.860;4.382;2022-10-10T11:18:11;17.10;64.30
34137;DHT22;20414;50.860;4.382;2022-10-10T11:20:51;17.10;64.40
34137;DHT22;20414;50.860;4.382;2022-10-10T11:23:26;17.10;64.30
34137;DHT22;20414;50.860;4.382;2022-10-10T11:25:59;17.10;64.30
34137;DHT22;20414;50.860;4.382;2022-10-10T11:28:32;17.10;64.30
34137;DHT22;20414;50.860;4.382;2022-10-10T11:31:06;17.10;64.20
34137;DHT22;20414;50.860;4.382;2022-10-10T11:33:39;17.10;64.20
34137;DHT22;20414;50.860;4.382;2022-10-10T11:36:19;17.10;64.20
34137;DHT22;20414;50.860;4.382;2022-10-10T11:38:55;17.10;64.20
34137;DHT22;20414;50.860;4.382;2022-10-10T11:41:39;17.10;64.20
34137;DHT22;20414;50.860;4.382;2022-10-10T11:44:26;17.10;64.20
34137;DHT22;20414;50.860;4.382;2022-10-10T11:46:55;17.10;64.30
34137;DHT22;20414;50.860;4.382;2022-10-10T11:52:16;17.10;64.10
34137;DHT22;20414;50.860;4.382;2022-10-10T11:54:52;17.10;64.20
34137;DHT22;20414;50.860;4.382;2022-10-10T11:57:29;17.10;64.10
34137;DHT22;20414;50.860;4.382;2022-10-10T12:00:10;17.10;64.10
34137;DHT22;20414;50.860;4.382;2022-10-10T12:02:38;17.10;64.20
34137;DHT22;20414;50.860;4.382;2022-10-10T12:05:16;17.20;64.20
34137;DHT22;20414;50.860;4.382;2022-10-10T12:10:48;17.10;64.20
34137;DHT22;20414;50.860;4.382;2022-10-10T12:13:27;17.20;64.20
34137;DHT22;20414;50.860;4.382;2022-10-10T12:15:55;17.10;64.10
34137;DHT22;20414;50.860;4.382;2022-10-10T12:18:39;17.20;64.20
34137;DHT22;20414;50.860;4.382;2022-10-10T12:21:17;17.10;64.10
34137;DHT22;20414;50.860;4.382;2022-10-10T12:23:58;17.20;64.20
34137;DHT22;20414;50.860;4.382;2022-10-10T12:26:24;17.20;64.10
34137;DHT22;20414;50.860;4.382;2022-10-10T12:29:10;17.20;64.90
34137;DHT22;20414;50.860;4.382;2022-10-10T12:31:39;17.20;64.10
34137;DHT22;20414;50.860;4.382;2022-10-10T12:34:10;17.20;64.10
34137;DHT22;20414;50.860;4.382;2022-10-10T12:36:51;17.20;64.10
34137;DHT22;20414;50.860;4.382;2022-10-10T12:44:40;17.20;64.10
34137;DHT22;20414;50.860;4.382;2022-10-10T12:52:24;17.20;64.10
34137;DHT22;20414;50.860;4.382;2022-10-10T12:54:53;17.20;64.10
34137;DHT22;20414;50.860;4.382;2022-10-10T12:57:41;17.20;64.10
34137;DHT22;20414;50.860;4.382;2022-10-10T13:00:17;17.20;64.10
34137;DHT22;20414;50.860;4.382;2022-10-10T13:02:45;17.20;64.10
34137;DHT22;20414;50.860;4.382;2022-10-10T13:05:14;17.20;64.00
34137;DHT22;20414;50.860;4.382;2022-10-10T13:07:44;17.20;64.10
34137;DHT22;20414;50.860;4.382;2022-10-10T13:10:25;17.20;64.10
34137;DHT22;20414;50.860;4.382;2022-10-10T13:13:20;17.20;64.00
34137;DHT22;20414;50.860;4.382;2022-10-10T13:15:57;17.20;64.00
34137;DHT22;20414;50.860;4.382;2022-10-10T13:18:41;17.20;64.10
34137;DHT22;20414;50.860;4.382;2022-10-10T13:21:11;17.20;64.00
34137;DHT22;20414;50.860;4.382;2022-10-10T13:23:42;17.20;64.00
34137;DHT22;20414;50.860;4.382;2022-10-10T13:26:21;17.20;64.00
34137;DHT22;20414;50.860;4.382;2022-10-10T13:28:48;17.20;64.00
34137;DHT22;20414;50.860;4.382;2022-10-10T13:31:14;17.20;64.00
34137;DHT22;20414;50.860;4.382;2022-10-10T13:33:40;17.20;64.00
34137;DHT22;20414;50.860;4.382;2022-10-10T13:36:16;17.20;64.00
34137;DHT22;20414;50.860;4.382;2022-10-10T13:38:42;17.20;64.00
34137;DHT22;20414;50.860;4.382;2022-10-10T13:41:11;17.20;64.00
34137;DHT22;20414;50.860;4.382;2022-10-10T13:43:39;17.20;64.00
34137;DHT22;20414;50.860;4.382;2022-10-10T13:46:16;17.20;64.00
34137;DHT22;20414;50.860;4.382;2022-10-10T13:48:43;17.20;64.00
34137;DHT22;20414;50.860;4.382;2022-10-10T13:51:13;17.20;64.00
34137;DHT22;20414;50.860;4.382;2022-10-10T13:53:50;17.20;64.00
34137;DHT22;20414;50.860;4.382;2022-10-10T13:56:27;17.20;64.00
34137;DHT22;20414;50.860;4.382;2022-10-10T13:59:11;17.20;64.70
34137;DHT22;20414;50.860;4.382;2022-10-10T14:01:40;17.20;64.00
34137;DHT22;20414;50.860;4.382;2022-10-10T14:10:04;17.30;64.20
34137;DHT22;20414;50.860;4.382;2022-10-10T14:12:42;17.30;64.00
34137;DHT22;20414;50.860;4.382;2022-10-10T14:18:21;17.30;64.10
34137;DHT22;20414;50.860;4.382;2022-10-10T14:20:47;17.30;64.00
34137;DHT22;20414;50.860;4.382;2022-10-10T14:23:13;17.30;64.00
34137;DHT22;20414;50.860;4.382;2022-10-10T14:25:41;17.20;63.90
34137;DHT22;20414;50.860;4.382;2022-10-10T14:28:26;17.30;64.00
34137;DHT22;20414;50.860;4.382;2022-10-10T14:30:53;17.30;64.00
34137;DHT22;20414;50.860;4.382;2022-10-10T14:33:19;17.30;64.00
34137;DHT22;20414;50.860;4.382;2022-10-10T14:35:46;17.30;64.00
34137;DHT22;20414;50.860;4.382;2022-10-10T14:38:13;17.30;64.00
34137;DHT22;20414;50.860;4.382;2022-10-10T14:40:40;17.30;64.00
34137;DHT22;20414;50.860;4.382;2022-10-10T14:43:06;17.30;63.90
34137;DHT22;20414;50.860;4.382;2022-10-10T14:45:32;17.30;64.00
34137;DHT22;20414;50.860;4.382;2022-10-10T14:47:58;17.30;64.00
34137;DHT22;20414;50.860;4.382;2022-10-10T14:50:30;17.30;64.10
34137;DHT22;20414;50.860;4.382;2022-10-10T14:52:57;17.30;64.20
34137;DHT22;20414;50.860;4.382;2022-10-10T14:55:23;17.30;64.10
34137;DHT22;20414;50.860;4.382;2022-10-10T14:57:49;17.30;64.10
34137;DHT22;20414;50.860;4.382;2022-10-10T15:00:18;17.30;64.10
34137;DHT22;20414;50.860;4.382;2022-10-10T15:02:43;17.30;63.90
34137;DHT22;20414;50.860;4.382;2022-10-10T15:05:09;17.30;63.90
34137;DHT22;20414;50.860;4.382;2022-10-10T15:07:35;17.30;63.90
34137;DHT22;20414;50.860;4.382;2022-10-10T15:10:01;17.30;64.00
34137;DHT22;20414;50.860;4.382;2022-10-10T15:12:27;17.30;64.00
34137;DHT22;20414;50.860;4.382;2022-10-10T15:14:52;17.30;63.90
34137;DHT22;20414;50.860;4.382;2022-10-10T15:17:18;17.30;64.00
34137;DHT22;20414;50.860;4.382;2022-10-10T15:19:44;17.30;64.10
34137;DHT22;20414;50.860;4.382;2022-10-10T15:22:09;17.30;64.00
34137;DHT22;20414;50.860;4.382;2022-10-10T15:24:35;17.30;63.90
34137;DHT22;20414;50.860;4.382;2022-10-10T15:27:01;17.30;64.00
34137;DHT22;20414;50.860;4.382;2022-10-10T15:29:27;17.30;63.90
34137;DHT22;20414;50.860;4.382;2022-10-10T15:31:53;17.30;64.00
34137;DHT22;20414;50.860;4.382;2022-10-10T15:34:20;17.30;64.00
34137;DHT22;20414;50.860;4.382;2022-10-10T15:36:47;17.30;64.00
34137;DHT22;20414;50.860;4.382;2022-10-10T15:39:13;17.30;64.10
34137;DHT22;20414;50.860;4.382;2022-10-10T15:41:39;17.30;64.10
34137;DHT22;20414;50.860;4.382;2022-10-10T15:44:14;17.30;64.00
34137;DHT22;20414;50.860;4.382;2022-10-10T15:46:41;17.30;64.00
34137;DHT22;20414;50.860;4.382;2022-10-10T15:49:07;17.30;64.70
34137;DHT22;20414;50.860;4.382;2022-10-10T15:51:32;17.30;64.00
34137;DHT22;20414;50.860;4.382;2022-10-10T15:53:58;17.30;64.00
34137;DHT22;20414;50.860;4.382;2022-10-10T15:56:25;17.30;64.10
34137;DHT22;20414;50.860;4.382;2022-10-10T15:58:55;17.30;64.20
34137;DHT22;20414;50.860;4.382;2022-10-10T16:01:21;17.30;64.10
34137;DHT22;20414;50.860;4.382;2022-10-10T16:03:47;17.30;64.20
34137;DHT22;20414;50.860;4.382;2022-10-10T16:06:14;17.30;64.10
34137;DHT22;20414;50.860;4.382;2022-10-10T16:08:41;17.30;64.20
34137;DHT22;20414;50.860;4.382;2022-10-10T16:11:10;17.30;64.30
34137;DHT22;20414;50.860;4.382;2022-10-10T16:13:36;17.30;64.10
34137;DHT22;20414;50.860;4.382;2022-10-10T16:16:05;17.30;64.20
34137;DHT22;20414;50.860;4.382;2022-10-10T16:18:33;17.30;64.20
34137;DHT22;20414;50.860;4.382;2022-10-10T16:20:59;17.30;64.20
34137;DHT22;20414;50.860;4.382;2022-10-10T16:23:25;17.30;64.10
34137;DHT22;20414;50.860;4.382;2022-10-10T16:26:22;17.30;64.10
34137;DHT22;20414;50.860;4.382;2022-10-10T16:28:48;17.30;64.10
34137;DHT22;20414;50.860;4.382;2022-10-10T16:31:16;17.30;64.10
34137;DHT22;20414;50.860;4.382;2022-10-10T16:33:42;17.30;64.10
34137;DHT22;20414;50.860;4.382;2022-10-10T16:36:17;17.30;64.10
34137;DHT22;20414;50.860;4.382;2022-10-10T16:38:43;17.30;64.10
34137;DHT22;20414;50.860;4.382;2022-10-10T16:41:11;17.30;64.10
34137;DHT22;20414;50.860;4.382;2022-10-10T16:43:41;17.30;64.10
34137;DHT22;20414;50.860;4.382;2022-10-10T16:46:09;17.30;64.10
34137;DHT22;20414;50.860;4.382;2022-10-10T16:48:37;17.30;64.10
34137;DHT22;20414;50.860;4.382;2022-10-10T16:51:21;17.30;64.10
34137;DHT22;20414;50.860;4.382;2022-10-10T16:53:50;17.30;64.10
34137;DHT22;20414;50.860;4.382;2022-10-10T16:56:18;17.30;64.00
34137;DHT22;20414;50.860;4.382;2022-10-10T16:58:44;17.30;64.10
34137;DHT22;20414;50.860;4.382;2022-10-10T17:01:13;17.30;64.10
34137;DHT22;20414;50.860;4.382;2022-10-10T17:03:39;17.30;64.10
34137;DHT22;20414;50.860;4.382;2022-10-10T17:06:07;17.30;64.00
34137;DHT22;20414;50.860;4.382;2022-10-10T17:08:34;17.30;64.00
34137;DHT22;20414;50.860;4.382;2022-10-10T17:11:00;17.30;64.10
34137;DHT22;20414;50.860;4.382;2022-10-10T17:13:27;17.30;64.10
34137;DHT22;20414;50.860;4.382;2022-10-10T17:15:53;17.30;64.00
34137;DHT22;20414;50.860;4.382;2022-10-10T17:18:19;17.30;64.00
34137;DHT22;20414;50.860;4.382;2022-10-10T17:20:45;17.30;64.10
34137;DHT22;20414;50.860;4.382;2022-10-10T17:23:12;17.30;64.00
34137;DHT22;20414;50.860;4.382;2022-10-10T17:25:42;17.30;64.00
34137;DHT22;20414;50.860;4.382;2022-10-10T17:28:08;17.30;64.00
34137;DHT22;20414;50.860;4.382;2022-10-10T17:30:33;17.30;64.00